Berezniki, Russia
Current Conditions -  °F | °C
As of 7:30 AM on Thursday 27 Nov 2014 (Local Time) from USPP Reporting Station
Clear Clear  
Wind Chill: -10°   Ceiling: Unl
Heat Index:   Visibility: 6mi
Dew Point: -2°   Wind: 4mph
Humidity: 92%   Direction: 250°WSW
Pressure: 30.39"   Gusts: NA
Location:  59.41°N, 56.77°E
Report Text: USPP 270230Z 25002MPS CAVOK M18/M19 Q1029 21290145 NOSIG RMKQFE761/1015
Loading
Personal Weather Stations






























Interactive Weather Map New forecast layout! Learn more

10-Day Weather Forecast

Advertisements
Track Severe Weather on mobile